Time;durP1;ratioP1;P1;durP2;ratioP2;P2;SDS_P1;SDS_P2;PMS_P1;PMS_P2;Temp;Humidity;BMP_temperature;BMP_pressure;BME280_temperature;BME280_humidity;BME280_pressure;Samples;Min_cycle;Max_cycle;Signal;HPM_P1;HPM_P2
2023/06/05 08:56:45;;;;;;;12.38;7.75;;;;;;;16.30;71.87;101970.84;5127352;27;20394;-71
2023/06/05 08:59:14;;;;;;;11.73;7.82;;;;;;;16.34;70.35;101972.03;5122970;28;20046;-72
2023/06/05 09:01:40;;;;;;;12.38;7.45;;;;;;;16.40;72.58;101967.53;5099695;27;20452;-71
2023/06/05 09:04:05;;;;;;;13.43;7.97;;;;;;;16.44;69.77;101965.97;5110429;28;20032;-72
2023/06/05 09:06:32;;;;;;;11.48;7.60;;;;;;;16.63;69.45;101962.06;5092291;28;20081;-70
2023/06/05 09:09:00;;;;;;;11.35;7.30;;;;;;;16.64;68.35;101976.56;5110014;28;20447;-72
2023/06/05 09:11:31;;;;;;;11.73;7.18;;;;;;;16.71;67.50;101958.13;5108645;28;20028;-71
2023/06/05 09:13:58;;;;;;;8.32;6.40;;;;;;;16.87;68.02;101961.25;5109787;28;20053;-72
2023/06/05 09:16:38;;;;;;;9.75;6.50;;;;;;;17.01;67.60;101965.38;5110015;28;20028;-72
2023/06/05 09:19:04;;;;;;;8.70;6.28;;;;;;;17.05;66.01;101966.56;5110044;28;20032;-72
2023/06/05 09:21:31;;;;;;;9.68;6.63;;;;;;;17.11;64.25;101965.59;5108612;28;20070;-71
2023/06/05 09:24:15;;;;;;;10.88;6.25;;;;;;;17.25;65.59;101949.72;5108426;28;20461;-72
2023/06/05 09:26:52;;;;;;;15.07;6.57;;;;;;;17.39;64.34;101961.22;5108461;28;20028;-74
2023/06/05 09:29:25;;;;;;;10.18;6.28;;;;;;;17.42;64.23;101959.91;5110001;28;20109;-70
2023/06/05 09:31:52;;;;;;;12.23;6.13;;;;;;;17.48;64.11;101961.66;5109653;28;20034;-72
2023/06/05 09:34:28;;;;;;;8.68;6.00;;;;;;;17.56;62.38;101958.53;5109831;28;20093;-73
2023/06/05 09:36:57;;;;;;;12.30;6.28;;;;;;;17.56;62.32;101950.34;5109536;28;20065;-72
2023/06/05 09:39:24;;;;;;;8.30;5.95;;;;;;;17.64;62.63;101946.38;5109245;28;20484;-73
2023/06/05 09:41:51;;;;;;;12.30;6.30;;;;;;;17.70;63.42;101943.47;5109164;28;20374;-71
2023/06/05 09:44:16;;;;;;;9.70;6.05;;;;;;;17.76;63.52;101943.56;5108234;28;20028;-73
2023/06/05 09:46:55;;;;;;;11.80;6.25;;;;;;;17.89;63.54;101949.59;5109133;28;20036;-72
2023/06/05 09:49:46;;;;;;;9.27;6.15;;;;;;;17.95;62.56;101963.34;5109551;28;20053;-73
2023/06/05 09:52:13;;;;;;;11.23;5.80;;;;;;;18.08;62.23;101943.03;5097331;28;20042;-72
2023/06/05 09:54:41;;;;;;;13.77;6.07;;;;;;;18.03;60.43;101954.75;5108815;28;20079;-70
2023/06/05 09:57:11;;;;;;;7.80;5.30;;;;;;;18.11;60.70;101957.06;5109412;28;20107;-72
2023/06/05 09:59:54;;;;;;;12.10;6.28;;;;;;;18.14;61.30;101947.53;5108017;28;20022;-73
2023/06/05 10:02:23;;;;;;;10.70;5.43;;;;;;;18.27;60.04;101949.06;5091195;28;20052;-74
2023/06/05 10:04:56;;;;;;;9.75;5.50;;;;;;;18.33;58.86;101946.19;5088633;28;20060;-72
2023/06/05 10:07:23;;;;;;;10.18;5.20;;;;;;;18.41;59.02;101943.00;5079204;28;20028;-71
2023/06/05 10:09:50;;;;;;;9.63;5.45;;;;;;;18.60;59.79;101946.31;5073808;28;20042;-73
2023/06/05 10:12:15;;;;;;;11.13;5.65;;;;;;;18.71;60.57;101938.22;5075504;28;20028;-70
2023/06/05 10:14:42;;;;;;;9.68;5.40;;;;;;;18.85;59.51;101941.44;5074667;28;20033;-72
2023/06/05 10:17:10;;;;;;;11.57;6.35;;;;;;;18.85;59.08;101939.53;5073751;28;20024;-73
2023/06/05 10:19:35;;;;;;;12.40;5.70;;;;;;;18.98;59.11;101932.00;5073697;28;20024;-74
2023/06/05 10:22:01;;;;;;;12.95;4.88;;;;;;;19.22;57.31;101922.44;5074917;28;20039;-73
2023/06/05 10:24:31;;;;;;;12.43;5.40;;;;;;;19.24;55.87;101933.97;5075039;28;20031;-72
2023/06/05 10:27:16;;;;;;;10.40;5.35;;;;;;;19.26;57.76;101929.09;5074894;28;20024;-70
2023/06/05 10:30:25;;;;;;;7.43;5.40;;;;;;;19.39;56.98;101932.50;5074775;28;20025;-74
2023/06/05 10:33:09;;;;;;;11.45;5.65;;;;;;;19.30;57.11;101929.38;5074743;28;20027;-74
2023/06/05 10:35:46;;;;;;;8.82;4.88;;;;;;;19.46;58.07;101933.09;5073447;28;20389;-72
2023/06/05 10:38:20;;;;;;;9.88;5.55;;;;;;;19.48;56.22;101922.72;5074824;28;20482;-72
2023/06/05 10:40:48;;;;;;;7.85;5.28;;;;;;;19.54;55.85;101926.34;5074473;28;20033;-73
2023/06/05 10:43:31;;;;;;;10.38;5.50;;;;;;;19.65;56.57;101923.41;5074778;28;20032;-70
2023/06/05 10:46:02;;;;;;;12.07;5.57;;;;;;;19.78;56.09;101921.38;5074133;28;20467;-73
2023/06/05 10:49:05;;;;;;;10.98;4.95;;;;;;;20.00;55.91;101929.53;5073233;28;20032;-72
2023/06/05 10:51:48;;;;;;;9.68;5.20;;;;;;;20.12;54.71;101921.09;5073194;28;20025;-72
2023/06/05 10:54:22;;;;;;;8.95;4.55;;;;;;;20.21;54.28;101925.00;5074227;28;20063;-71
2023/06/05 10:57:02;;;;;;;7.45;4.90;;;;;;;20.28;53.30;101911.88;5074132;28;20035;-72
2023/06/05 10:59:30;;;;;;;9.68;5.18;;;;;;;20.40;52.25;101914.44;5074441;28;20024;-71
2023/06/05 11:02:05;;;;;;;8.00;4.25;;;;;;;20.41;51.71;101910.59;5080330;28;20040;-73
2023/06/05 11:04:46;;;;;;;8.32;4.95;;;;;;;20.47;52.20;101908.69;5094490;28;20032;-72
2023/06/05 11:07:28;;;;;;;9.18;4.35;;;;;;;20.61;52.51;101903.53;5094108;28;20050;-73
2023/06/05 11:10:06;;;;;;;8.52;4.50;;;;;;;20.73;52.06;101909.69;5094165;28;20039;-70
2023/06/05 11:12:40;;;;;;;13.05;4.88;;;;;;;20.83;50.98;101908.91;5094344;28;20112;-72
2023/06/05 11:15:13;;;;;;;9.68;5.25;;;;;;;20.83;50.78;101903.41;5092656;28;20535;-72
2023/06/05 11:17:40;;;;;;;9.60;4.45;;;;;;;20.87;49.94;101901.78;5093602;28;20028;-72
2023/06/05 11:20:09;;;;;;;8.07;4.38;;;;;;;20.98;50.22;101894.38;5093048;28;20035;-72
2023/06/05 11:22:53;;;;;;;8.68;3.90;;;;;;;21.18;50.42;101897.22;5094229;28;20028;-72
2023/06/05 11:25:21;;;;;;;8.48;4.07;;;;;;;21.25;48.80;101888.69;5094148;28;20032;-71
2023/06/05 11:27:49;;;;;;;11.07;5.22;;;;;;;21.25;48.67;101885.91;5093858;28;20028;-73
2023/06/05 11:30:20;;;;;;;8.13;4.20;;;;;;;21.47;49.36;101902.22;5094041;28;20032;-74
2023/06/05 11:32:46;;;;;;;8.35;4.32;;;;;;;21.66;48.44;101887.94;5093707;28;20024;-72
2023/06/05 11:35:12;;;;;;;5.63;3.83;;;;;;;21.69;47.24;101884.63;5094073;28;20024;-71
2023/06/05 11:37:39;;;;;;;9.50;3.97;;;;;;;21.82;48.08;101886.84;5093525;28;20035;-70
2023/06/05 11:40:09;;;;;;;6.90;3.90;;;;;;;21.86;48.63;101885.19;5092309;28;20536;-73
2023/06/05 11:42:35;;;;;;;11.63;4.22;;;;;;;21.82;47.56;101880.50;5093785;28;20030;-70
2023/06/05 11:45:00;;;;;;;9.85;4.10;;;;;;;21.91;48.07;101876.09;5092135;28;20071;-73
2023/06/05 11:47:30;;;;;;;7.80;4.10;;;;;;;21.80;46.50;101879.94;5093658;28;20062;-71
2023/06/05 11:50:09;;;;;;;13.77;4.70;;;;;;;21.85;47.60;101882.72;5093406;28;20042;-74
2023/06/05 11:52:35;;;;;;;10.25;4.15;;;;;;;21.85;46.80;101883.53;5092305;28;20049;-71
2023/06/05 11:55:15;;;;;;;10.05;4.43;;;;;;;21.92;47.06;101880.47;5093357;28;20048;-70
2023/06/05 11:57:43;;;;;;;6.40;3.70;;;;;;;21.86;46.39;101878.84;5092271;28;20063;-72
2023/06/05 12:00:10;;;;;;;7.47;4.20;;;;;;;21.97;47.09;101874.13;5093143;28;20099;-72
2023/06/05 12:02:37;;;;;;;8.02;4.15;;;;;;;22.10;46.78;101866.16;5072704;28;20049;-71
2023/06/05 12:05:02;;;;;;;9.38;4.30;;;;;;;22.18;46.10;101869.41;5072823;28;20025;-72
2023/06/05 12:07:28;;;;;;;8.60;4.20;;;;;;;22.17;44.73;101865.03;5071470;28;20089;-73
2023/06/05 12:09:55;;;;;;;7.88;4.18;;;;;;;22.29;46.02;101862.78;5072875;28;20037;-74
2023/06/05 12:12:20;;;;;;;6.25;4.13;;;;;;;22.27;45.56;101862.25;5073030;28;20080;-72
2023/06/05 12:14:46;;;;;;;8.63;3.80;;;;;;;22.40;46.18;101863.63;5072846;28;20025;-71
2023/06/05 12:17:12;;;;;;;6.85;4.05;;;;;;;22.42;45.53;101856.72;5071373;28;20035;-73
2023/06/05 12:19:37;;;;;;;6.53;4.00;;;;;;;22.56;44.38;101856.94;5072844;28;20274;-72
2023/06/05 12:22:09;;;;;;;7.07;3.75;;;;;;;22.61;44.11;101854.16;5072595;28;20029;-73
2023/06/05 12:24:34;;;;;;;;;;;;;;;22.78;45.73;101850.22;5073265;28;20464;-72
2023/06/05 12:27:01;;;;;;;7.63;3.70;;;;;;;22.95;44.16;101847.13;5072502;28;19995;-72
2023/06/05 12:29:29;;;;;;;6.70;3.60;;;;;;;23.08;43.53;101854.75;5071263;28;20029;-73
2023/06/05 12:31:56;;;;;;;6.03;3.22;;;;;;;23.17;42.76;101855.84;5072514;28;20077;-72
2023/06/05 12:34:50;;;;;;;11.23;4.00;;;;;;;23.22;42.51;101854.13;5072330;28;20039;-72
2023/06/05 12:37:37;;;;;;;10.10;4.10;;;;;;;23.13;42.47;101852.00;5071256;28;20033;-74
2023/06/05 12:40:07;;;;;;;11.88;4.13;;;;;;;22.95;40.61;101844.34;5072419;28;20108;-72
2023/06/05 12:42:37;;;;;;;7.13;3.05;;;;;;;23.13;42.40;101842.88;5072341;28;20034;-72
2023/06/05 12:45:08;;;;;;;7.60;3.30;;;;;;;23.18;42.91;101840.91;5072281;28;20025;-74
2023/06/05 12:47:35;;;;;;;5.72;3.40;;;;;;;23.27;41.66;101835.63;5072237;28;20078;-71
2023/06/05 12:50:01;;;;;;;6.63;3.00;;;;;;;23.50;41.69;101838.75;5071999;28;20107;-73
2023/06/05 12:52:26;;;;;;;4.88;3.17;;;;;;;23.53;40.45;101844.50;5072373;28;20024;-74
2023/06/05 12:54:56;;;;;;;6.57;3.38;;;;;;;23.56;39.98;101836.78;5071731;28;20041;-74
2023/06/05 12:57:22;;;;;;;9.63;3.00;;;;;;;23.61;40.99;101821.00;5072232;28;20031;-72
2023/06/05 12:59:47;;;;;;;8.93;3.30;;;;;;;23.56;41.14;101823.78;5072154;28;20379;-73
2023/06/05 13:02:13;;;;;;;11.00;3.63;;;;;;;23.70;41.84;101815.63;5082257;28;20494;-74
2023/06/05 13:04:39;;;;;;;6.40;3.60;;;;;;;23.61;42.11;101811.84;5092548;28;20459;-73
2023/06/05 13:07:05;;;;;;;9.27;3.35;;;;;;;23.67;42.13;101819.81;5092351;28;20480;-73
2023/06/05 13:09:31;;;;;;;8.20;3.63;;;;;;;23.80;41.91;101803.69;5092834;28;20031;-73
2023/06/05 13:11:59;;;;;;;5.80;3.35;;;;;;;23.74;39.37;101810.38;5092339;28;20043;-73
2023/06/05 13:14:24;;;;;;;6.38;3.10;;;;;;;23.69;39.96;101812.06;5092125;28;20121;-73
2023/06/05 13:16:50;;;;;;;7.63;3.00;;;;;;;23.74;38.98;101805.66;5092531;28;20478;-74
2023/06/05 13:19:15;;;;;;;7.32;3.50;;;;;;;23.78;38.88;101803.13;5090891;28;20059;-73
2023/06/05 13:21:40;;;;;;;5.38;3.38;;;;;;;23.86;38.95;101797.81;5092694;28;20486;-73
2023/06/05 13:24:06;;;;;;;9.77;3.20;;;;;;;24.10;39.18;101797.03;5092152;28;20024;-74
2023/06/05 13:26:31;;;;;;;7.93;3.10;;;;;;;24.20;39.33;101796.91;5092387;28;20024;-73
2023/06/05 13:28:56;;;;;;;6.75;2.95;;;;;;;24.26;38.75;101789.34;5092140;28;20042;-75
2023/06/05 13:31:22;;;;;;;9.43;3.28;;;;;;;24.31;39.47;101782.97;5092393;28;20671;-73
2023/06/05 13:33:47;;;;;;;6.70;3.60;;;;;;;24.30;39.84;101789.59;5091046;28;20085;-74
2023/06/05 13:36:13;;;;;;;7.63;3.33;;;;;;;24.39;40.15;101774.81;5092097;28;20028;-71
2023/06/05 13:38:38;;;;;;;7.07;3.20;;;;;;;24.38;39.89;101781.47;5091981;28;20393;-73
2023/06/05 13:41:06;;;;;;;7.68;3.80;;;;;;;24.31;39.43;101777.44;5091762;28;20054;-70
2023/06/05 13:43:32;;;;;;;6.57;3.13;;;;;;;24.55;39.94;101782.94;5096072;28;20043;-74
2023/06/05 13:45:57;;;;;;;7.43;3.40;;;;;;;24.53;39.84;101782.38;5095456;28;20032;-73
2023/06/05 13:48:23;;;;;;;9.43;4.30;;;;;;;24.45;39.80;101781.09;5095970;28;20031;-73
2023/06/05 13:50:48;;;;;;;7.00;3.70;;;;;;;24.30;38.98;101784.88;5095946;28;20036;-72
2023/06/05 13:53:13;;;;;;;9.02;3.40;;;;;;;24.37;39.25;101776.25;5095749;28;20167;-73
2023/06/05 13:55:39;;;;;;;6.85;2.90;;;;;;;24.43;37.02;101775.06;5094067;28;20293;-71
2023/06/05 13:58:05;;;;;;;7.97;2.70;;;;;;;24.53;36.55;101776.84;5095629;28;20035;-72
2023/06/05 14:00:31;;;;;;;5.55;2.70;;;;;;;24.50;36.48;101771.91;5093677;28;20028;-72
2023/06/05 14:02:57;;;;;;;8.57;2.63;;;;;;;24.53;37.14;101772.16;5074154;28;20045;-72
2023/06/05 14:05:23;;;;;;;5.75;2.83;;;;;;;24.57;37.84;101770.44;5075224;28;20037;-73
2023/06/05 14:07:50;;;;;;;5.88;3.05;;;;;;;24.72;39.14;101768.59;5074129;28;20455;-73
2023/06/05 14:10:17;;;;;;;7.97;3.28;;;;;;;24.66;38.92;101769.81;5073856;28;20206;-75
2023/06/05 14:12:42;;;;;;;6.63;3.63;;;;;;;24.63;39.72;101760.16;5073952;28;20510;-71
2023/06/05 14:15:07;;;;;;;4.60;3.40;;;;;;;24.69;39.01;101767.25;5074995;28;20021;-74
2023/06/05 14:17:33;;;;;;;11.63;3.17;;;;;;;24.75;39.38;101765.25;5075448;28;20033;-72
2023/06/05 14:19:58;;;;;;;6.53;3.88;;;;;;;24.75;39.63;101768.00;5073575;28;20030;-74
2023/06/05 14:22:24;;;;;;;8.60;3.85;;;;;;;24.84;40.42;101749.59;5075071;28;20020;-71
2023/06/05 14:24:49;;;;;;;6.35;3.22;;;;;;;25.02;38.89;101753.47;5075098;28;20031;-72
2023/06/05 14:27:16;;;;;;;8.40;3.40;;;;;;;25.04;39.02;101753.19;5073448;28;20036;-74
2023/06/05 14:29:41;;;;;;;5.68;3.97;;;;;;;24.85;38.84;101753.19;5073643;28;20090;-72
2023/06/05 14:32:06;;;;;;;11.30;3.60;;;;;;;24.90;39.84;101747.59;5074432;28;20478;-73
2023/06/05 14:34:32;;;;;;;4.90;3.55;;;;;;;24.96;40.20;101743.59;5073497;28;20039;-73
2023/06/05 14:36:57;;;;;;;6.65;3.38;;;;;;;25.14;39.53;101753.00;5073301;28;20027;-74
2023/06/05 14:39:22;;;;;;;9.02;3.75;;;;;;;25.14;38.23;101750.25;5073481;28;20062;-72
2023/06/05 14:41:48;;;;;;;6.93;3.42;;;;;;;25.18;39.02;101742.13;5074706;28;20052;-71
2023/06/05 14:44:13;;;;;;;6.50;3.67;;;;;;;25.13;39.48;101735.56;5074107;28;20082;-71
2023/06/05 14:46:39;;;;;;;14.30;4.03;;;;;;;24.99;39.89;101742.19;5074285;28;20039;-73
2023/06/05 14:49:04;;;;;;;4.13;3.03;;;;;;;25.13;39.46;101740.28;5074344;28;20039;-74
2023/06/05 14:51:29;;;;;;;9.60;3.63;;;;;;;25.11;39.81;101737.81;5074292;28;20023;-74
2023/06/05 14:53:55;;;;;;;9.43;3.67;;;;;;;25.04;38.45;101755.94;5074094;28;20467;-71
2023/06/05 14:56:22;;;;;;;8.75;3.92;;;;;;;25.10;39.23;101746.44;5074002;28;20041;-73
2023/06/05 14:58:48;;;;;;;9.68;3.90;;;;;;;25.20;39.61;101746.25;5074156;28;20095;-75
2023/06/05 15:01:13;;;;;;;6.43;3.55;;;;;;;25.23;38.95;101740.13;5074387;28;20036;-73
2023/06/05 15:03:39;;;;;;;6.15;3.53;;;;;;;25.26;38.98;101733.16;5094330;28;20024;-71
2023/06/05 15:06:05;;;;;;;9.57;3.50;;;;;;;25.39;39.39;101729.59;5094349;28;20028;-73
2023/06/05 15:08:30;;;;;;;7.95;3.85;;;;;;;25.38;39.11;101730.75;5094462;28;20024;-74
2023/06/05 15:10:55;;;;;;;4.93;3.50;;;;;;;25.34;38.79;101728.91;5094530;28;20382;-72
2023/06/05 15:13:21;;;;;;;6.97;3.75;;;;;;;25.33;38.43;101733.59;5094227;28;20255;-73
2023/06/05 15:15:47;;;;;;;9.80;4.00;;;;;;;25.25;38.72;101726.78;5094180;28;20036;-74
2023/06/05 15:18:12;;;;;;;6.63;3.45;;;;;;;25.34;38.73;101729.72;5092603;28;20024;-72
2023/06/05 15:20:38;;;;;;;7.75;3.60;;;;;;;25.43;39.43;101727.06;5092600;28;20088;-71
2023/06/05 15:23:03;;;;;;;7.97;3.38;;;;;;;25.48;39.23;101721.41;5093951;28;20480;-72
2023/06/05 15:25:28;;;;;;;6.72;3.40;;;;;;;25.47;39.12;101728.91;5092697;28;20027;-74
2023/06/05 15:27:54;;;;;;;5.75;3.50;;;;;;;25.38;39.14;101716.06;5092785;28;20034;-71
2023/06/05 15:30:20;;;;;;;5.78;3.42;;;;;;;25.63;38.67;101712.81;5093550;28;20032;-73
2023/06/05 15:32:45;;;;;;;8.27;3.20;;;;;;;25.61;38.83;101711.50;5093991;28;20112;-71
2023/06/05 15:35:11;;;;;;;8.93;3.25;;;;;;;25.70;38.46;101719.94;5093556;28;20371;-73
2023/06/05 15:37:36;;;;;;;5.95;3.50;;;;;;;25.57;38.38;101722.34;5092302;28;20386;-73
2023/06/05 15:40:02;;;;;;;9.95;3.40;;;;;;;25.49;38.64;101730.56;5093349;28;20673;-75
2023/06/05 15:42:32;;;;;;;8.75;3.53;;;;;;;25.40;38.83;101724.91;5093777;28;20054;-72
2023/06/05 15:45:08;;;;;;;6.70;3.22;;;;;;;25.49;39.22;101725.03;5093443;28;20089;-72
2023/06/05 15:47:33;;;;;;;4.38;3.25;;;;;;;25.90;38.29;101715.91;5093452;28;20058;-72
2023/06/05 15:50:00;;;;;;;11.38;3.50;;;;;;;26.20;37.66;101717.25;5093370;28;20024;-72
2023/06/05 15:52:29;;;;;;;8.95;3.15;;;;;;;26.32;37.12;101717.53;5092170;28;20020;-75
2023/06/05 15:54:55;;;;;;;7.03;3.33;;;;;;;26.34;36.81;101717.22;5093526;28;20043;-71
2023/06/05 15:57:20;;;;;;;5.20;3.22;;;;;;;26.41;37.34;101714.03;5093419;28;20038;-70
2023/06/05 15:59:46;;;;;;;4.93;3.30;;;;;;;26.34;37.54;101718.06;5093464;28;20052;-75
2023/06/05 16:02:11;;;;;;;9.43;2.90;;;;;;;25.94;37.95;101703.91;5076369;28;20128;-71
2023/06/05 16:04:36;;;;;;;5.43;3.17;;;;;;;25.54;38.85;101716.59;5072266;28;20112;-69
2023/06/05 16:07:02;;;;;;;7.50;3.10;;;;;;;25.22;39.74;101715.50;5073100;28;20025;-71
